sensor_id;sensor_type;location;lat;lon;timestamp;P1;durP1;ratioP1;P2;durP2;ratioP2
22871;SDS011;11603;44.910;8.630;2023-01-15T00:01:49;72.90;;;49.42;;
22871;SDS011;11603;44.910;8.630;2023-01-15T00:04:09;71.93;;;50.33;;
22871;SDS011;11603;44.910;8.630;2023-01-15T00:06:37;67.88;;;48.70;;
22871;SDS011;11603;44.910;8.630;2023-01-15T00:09:04;66.40;;;48.97;;
22871;SDS011;11603;44.910;8.630;2023-01-15T00:11:30;69.88;;;48.63;;
22871;SDS011;11603;44.910;8.630;2023-01-15T00:13:56;70.88;;;49.35;;
22871;SDS011;11603;44.910;8.630;2023-01-15T00:16:22;69.53;;;49.10;;
22871;SDS011;11603;44.910;8.630;2023-01-15T00:18:50;72.75;;;50.88;;
22871;SDS011;11603;44.910;8.630;2023-01-15T00:21:16;75.95;;;51.03;;
22871;SDS011;11603;44.910;8.630;2023-01-15T00:23:42;71.50;;;51.80;;
22871;SDS011;11603;44.910;8.630;2023-01-15T00:26:27;78.57;;;51.67;;
22871;SDS011;11603;44.910;8.630;2023-01-15T00:29:13;74.43;;;52.15;;
22871;SDS011;11603;44.910;8.630;2023-01-15T00:31:41;75.43;;;51.00;;
22871;SDS011;11603;44.910;8.630;2023-01-15T00:34:07;73.13;;;50.13;;
22871;SDS011;11603;44.910;8.630;2023-01-15T00:36:33;76.47;;;52.28;;
22871;SDS011;11603;44.910;8.630;2023-01-15T00:38:59;77.93;;;51.65;;
22871;SDS011;11603;44.910;8.630;2023-01-15T00:41:25;73.20;;;50.95;;
22871;SDS011;11603;44.910;8.630;2023-01-15T00:43:50;76.50;;;52.10;;
22871;SDS011;11603;44.910;8.630;2023-01-15T00:46:17;68.32;;;50.33;;
22871;SDS011;11603;44.910;8.630;2023-01-15T00:48:43;68.93;;;49.72;;
22871;SDS011;11603;44.910;8.630;2023-01-15T00:51:08;73.15;;;50.72;;
22871;SDS011;11603;44.910;8.630;2023-01-15T00:53:34;70.00;;;49.72;;
22871;SDS011;11603;44.910;8.630;2023-01-15T00:55:59;74.43;;;50.30;;
22871;SDS011;11603;44.910;8.630;2023-01-15T00:58:27;74.82;;;51.53;;
22871;SDS011;11603;44.910;8.630;2023-01-15T01:00:56;77.90;;;49.72;;
22871;SDS011;11603;44.910;8.630;2023-01-15T01:03:22;69.88;;;46.70;;
22871;SDS011;11603;44.910;8.630;2023-01-15T01:05:48;69.55;;;48.25;;
22871;SDS011;11603;44.910;8.630;2023-01-15T01:08:14;71.05;;;49.33;;
22871;SDS011;11603;44.910;8.630;2023-01-15T01:10:40;68.13;;;47.97;;
22871;SDS011;11603;44.910;8.630;2023-01-15T01:13:06;72.60;;;49.33;;
22871;SDS011;11603;44.910;8.630;2023-01-15T01:15:32;73.45;;;48.83;;
22871;SDS011;11603;44.910;8.630;2023-01-15T01:17:58;70.05;;;49.80;;
22871;SDS011;11603;44.910;8.630;2023-01-15T01:20:25;70.32;;;48.58;;
22871;SDS011;11603;44.910;8.630;2023-01-15T01:22:51;71.05;;;49.00;;
22871;SDS011;11603;44.910;8.630;2023-01-15T01:25:16;68.88;;;48.10;;
22871;SDS011;11603;44.910;8.630;2023-01-15T01:27:43;65.88;;;47.45;;
22871;SDS011;11603;44.910;8.630;2023-01-15T01:30:10;69.85;;;48.60;;
22871;SDS011;11603;44.910;8.630;2023-01-15T01:32:36;69.70;;;49.60;;
22871;SDS011;11603;44.910;8.630;2023-01-15T01:35:01;73.50;;;48.05;;
22871;SDS011;11603;44.910;8.630;2023-01-15T01:37:27;69.45;;;47.28;;
22871;SDS011;11603;44.910;8.630;2023-01-15T01:39:52;70.53;;;48.47;;
22871;SDS011;11603;44.910;8.630;2023-01-15T01:42:19;67.63;;;47.63;;
22871;SDS011;11603;44.910;8.630;2023-01-15T01:47:11;69.43;;;48.13;;
22871;SDS011;11603;44.910;8.630;2023-01-15T01:49:47;69.15;;;48.38;;
22871;SDS011;11603;44.910;8.630;2023-01-15T01:52:20;69.43;;;47.28;;
22871;SDS011;11603;44.910;8.630;2023-01-15T01:54:51;74.80;;;48.05;;
22871;SDS011;11603;44.910;8.630;2023-01-15T01:57:17;70.65;;;47.85;;
22871;SDS011;11603;44.910;8.630;2023-01-15T01:59:45;68.40;;;47.65;;
22871;SDS011;11603;44.910;8.630;2023-01-15T02:02:12;70.70;;;49.63;;
22871;SDS011;11603;44.910;8.630;2023-01-15T02:04:39;73.40;;;48.03;;
22871;SDS011;11603;44.910;8.630;2023-01-15T02:07:05;72.88;;;49.67;;
22871;SDS011;11603;44.910;8.630;2023-01-15T02:09:31;69.45;;;48.92;;
22871;SDS011;11603;44.910;8.630;2023-01-15T02:12:00;71.55;;;48.63;;
22871;SDS011;11603;44.910;8.630;2023-01-15T02:17:17;66.82;;;47.20;;
22871;SDS011;11603;44.910;8.630;2023-01-15T02:28:35;69.78;;;45.80;;
22871;SDS011;11603;44.910;8.630;2023-01-15T02:31:01;67.57;;;47.78;;
22871;SDS011;11603;44.910;8.630;2023-01-15T02:33:37;73.53;;;49.40;;
22871;SDS011;11603;44.910;8.630;2023-01-15T02:36:08;70.38;;;48.63;;
22871;SDS011;11603;44.910;8.630;2023-01-15T02:38:39;69.90;;;49.20;;
22871;SDS011;11603;44.910;8.630;2023-01-15T02:41:11;75.63;;;48.70;;
22871;SDS011;11603;44.910;8.630;2023-01-15T02:43:45;72.32;;;48.33;;
22871;SDS011;11603;44.910;8.630;2023-01-15T02:46:15;72.07;;;47.78;;
22871;SDS011;11603;44.910;8.630;2023-01-15T02:48:43;67.28;;;48.35;;
22871;SDS011;11603;44.910;8.630;2023-01-15T02:51:14;73.00;;;49.58;;
22871;SDS011;11603;44.910;8.630;2023-01-15T02:53:44;70.47;;;48.97;;
22871;SDS011;11603;44.910;8.630;2023-01-15T02:56:17;68.57;;;47.53;;
22871;SDS011;11603;44.910;8.630;2023-01-15T02:58:52;73.35;;;49.20;;
22871;SDS011;11603;44.910;8.630;2023-01-15T03:01:23;69.35;;;48.88;;
22871;SDS011;11603;44.910;8.630;2023-01-15T03:06:40;66.80;;;47.40;;
22871;SDS011;11603;44.910;8.630;2023-01-15T03:09:11;68.55;;;48.15;;
22871;SDS011;11603;44.910;8.630;2023-01-15T03:11:43;71.45;;;48.17;;
22871;SDS011;11603;44.910;8.630;2023-01-15T03:16:53;71.68;;;48.63;;
22871;SDS011;11603;44.910;8.630;2023-01-15T03:19:28;70.00;;;48.03;;
22871;SDS011;11603;44.910;8.630;2023-01-15T03:22:00;68.20;;;46.72;;
22871;SDS011;11603;44.910;8.630;2023-01-15T03:24:34;67.38;;;47.90;;
22871;SDS011;11603;44.910;8.630;2023-01-15T03:27:07;69.57;;;48.30;;
22871;SDS011;11603;44.910;8.630;2023-01-15T03:29:39;73.32;;;49.42;;
22871;SDS011;11603;44.910;8.630;2023-01-15T03:32:09;73.30;;;48.88;;
22871;SDS011;11603;44.910;8.630;2023-01-15T03:34:36;69.32;;;47.88;;
22871;SDS011;11603;44.910;8.630;2023-01-15T03:37:06;69.68;;;48.20;;
22871;SDS011;11603;44.910;8.630;2023-01-15T03:39:31;68.90;;;48.55;;
22871;SDS011;11603;44.910;8.630;2023-01-15T03:42:05;74.40;;;49.22;;
22871;SDS011;11603;44.910;8.630;2023-01-15T03:52:56;71.18;;;47.97;;
22871;SDS011;11603;44.910;8.630;2023-01-15T03:58:20;69.13;;;48.22;;
22871;SDS011;11603;44.910;8.630;2023-01-15T04:00:57;72.60;;;49.08;;
22871;SDS011;11603;44.910;8.630;2023-01-15T04:03:25;73.07;;;49.67;;
22871;SDS011;11603;44.910;8.630;2023-01-15T04:05:55;69.25;;;48.22;;
22871;SDS011;11603;44.910;8.630;2023-01-15T04:08:23;72.90;;;47.85;;
22871;SDS011;11603;44.910;8.630;2023-01-15T04:10:57;68.25;;;47.83;;
22871;SDS011;11603;44.910;8.630;2023-01-15T04:13:28;69.35;;;47.70;;
22871;SDS011;11603;44.910;8.630;2023-01-15T04:15:54;70.95;;;47.92;;
22871;SDS011;11603;44.910;8.630;2023-01-15T04:18:20;71.75;;;47.50;;
22871;SDS011;11603;44.910;8.630;2023-01-15T04:20:46;68.80;;;47.97;;
22871;SDS011;11603;44.910;8.630;2023-01-15T04:23:12;69.15;;;46.95;;
22871;SDS011;11603;44.910;8.630;2023-01-15T04:25:38;71.50;;;47.28;;
22871;SDS011;11603;44.910;8.630;2023-01-15T04:28:05;66.82;;;46.53;;
22871;SDS011;11603;44.910;8.630;2023-01-15T04:30:32;67.88;;;47.03;;
22871;SDS011;11603;44.910;8.630;2023-01-15T04:32:59;73.07;;;48.33;;
22871;SDS011;11603;44.910;8.630;2023-01-15T04:35:25;63.58;;;46.30;;
22871;SDS011;11603;44.910;8.630;2023-01-15T04:37:54;70.43;;;46.78;;
22871;SDS011;11603;44.910;8.630;2023-01-15T04:40:20;70.82;;;48.35;;
22871;SDS011;11603;44.910;8.630;2023-01-15T04:43:05;67.13;;;47.28;;
22871;SDS011;11603;44.910;8.630;2023-01-15T04:45:49;68.22;;;46.33;;
22871;SDS011;11603;44.910;8.630;2023-01-15T04:48:14;66.00;;;44.80;;
22871;SDS011;11603;44.910;8.630;2023-01-15T04:50:40;64.95;;;45.83;;
22871;SDS011;11603;44.910;8.630;2023-01-15T04:53:05;66.95;;;46.83;;
22871;SDS011;11603;44.910;8.630;2023-01-15T04:55:31;70.78;;;47.10;;
22871;SDS011;11603;44.910;8.630;2023-01-15T04:57:56;70.70;;;48.13;;
22871;SDS011;11603;44.910;8.630;2023-01-15T05:00:22;68.03;;;47.63;;
22871;SDS011;11603;44.910;8.630;2023-01-15T05:02:48;69.72;;;47.53;;
22871;SDS011;11603;44.910;8.630;2023-01-15T05:05:14;67.60;;;47.63;;
22871;SDS011;11603;44.910;8.630;2023-01-15T05:07:40;75.25;;;48.45;;
22871;SDS011;11603;44.910;8.630;2023-01-15T05:10:05;68.43;;;47.38;;
22871;SDS011;11603;44.910;8.630;2023-01-15T05:12:31;68.32;;;47.10;;
22871;SDS011;11603;44.910;8.630;2023-01-15T05:14:56;74.88;;;49.55;;
22871;SDS011;11603;44.910;8.630;2023-01-15T05:17:22;67.63;;;47.65;;
22871;SDS011;11603;44.910;8.630;2023-01-15T05:19:47;71.13;;;48.80;;
22871;SDS011;11603;44.910;8.630;2023-01-15T05:22:13;66.88;;;47.50;;
22871;SDS011;11603;44.910;8.630;2023-01-15T05:24:38;66.82;;;47.15;;
22871;SDS011;11603;44.910;8.630;2023-01-15T05:27:04;69.70;;;48.00;;
22871;SDS011;11603;44.910;8.630;2023-01-15T05:29:30;68.55;;;49.08;;
22871;SDS011;11603;44.910;8.630;2023-01-15T05:31:55;71.30;;;48.13;;
22871;SDS011;11603;44.910;8.630;2023-01-15T05:34:21;70.82;;;49.03;;
22871;SDS011;11603;44.910;8.630;2023-01-15T05:36:47;66.82;;;46.53;;
22871;SDS011;11603;44.910;8.630;2023-01-15T05:39:12;68.50;;;47.38;;
22871;SDS011;11603;44.910;8.630;2023-01-15T05:41:38;66.25;;;46.83;;
22871;SDS011;11603;44.910;8.630;2023-01-15T05:46:45;66.93;;;45.92;;
22871;SDS011;11603;44.910;8.630;2023-01-15T05:49:12;71.20;;;45.80;;
22871;SDS011;11603;44.910;8.630;2023-01-15T05:51:39;70.55;;;47.53;;
22871;SDS011;11603;44.910;8.630;2023-01-15T05:54:07;65.05;;;46.92;;
22871;SDS011;11603;44.910;8.630;2023-01-15T05:56:35;66.55;;;46.10;;
22871;SDS011;11603;44.910;8.630;2023-01-15T05:59:02;64.20;;;46.20;;
22871;SDS011;11603;44.910;8.630;2023-01-15T06:01:28;68.07;;;45.97;;
22871;SDS011;11603;44.910;8.630;2023-01-15T06:03:56;69.15;;;45.92;;
22871;SDS011;11603;44.910;8.630;2023-01-15T06:06:26;65.03;;;45.60;;
22871;SDS011;11603;44.910;8.630;2023-01-15T06:08:52;74.75;;;46.85;;
22871;SDS011;11603;44.910;8.630;2023-01-15T06:11:18;66.68;;;47.70;;
22871;SDS011;11603;44.910;8.630;2023-01-15T06:13:43;67.68;;;48.38;;
22871;SDS011;11603;44.910;8.630;2023-01-15T06:16:09;69.43;;;47.90;;
22871;SDS011;11603;44.910;8.630;2023-01-15T06:18:35;69.47;;;47.70;;
22871;SDS011;11603;44.910;8.630;2023-01-15T06:21:03;69.53;;;47.38;;
22871;SDS011;11603;44.910;8.630;2023-01-15T06:23:32;65.25;;;45.13;;
22871;SDS011;11603;44.910;8.630;2023-01-15T06:26:01;64.70;;;46.33;;
22871;SDS011;11603;44.910;8.630;2023-01-15T06:28:29;66.40;;;45.55;;
22871;SDS011;11603;44.910;8.630;2023-01-15T06:30:55;69.22;;;46.88;;
22871;SDS011;11603;44.910;8.630;2023-01-15T06:33:21;65.78;;;46.38;;
22871;SDS011;11603;44.910;8.630;2023-01-15T06:35:46;68.05;;;46.95;;
22871;SDS011;11603;44.910;8.630;2023-01-15T06:38:12;67.82;;;45.50;;
22871;SDS011;11603;44.910;8.630;2023-01-15T06:40:37;70.53;;;46.65;;
22871;SDS011;11603;44.910;8.630;2023-01-15T06:43:02;65.97;;;45.92;;
22871;SDS011;11603;44.910;8.630;2023-01-15T06:45:47;71.90;;;46.10;;
22871;SDS011;11603;44.910;8.630;2023-01-15T06:48:51;69.45;;;45.95;;
22871;SDS011;11603;44.910;8.630;2023-01-15T06:51:16;66.38;;;45.92;;
22871;SDS011;11603;44.910;8.630;2023-01-15T06:53:44;67.00;;;44.45;;
22871;SDS011;11603;44.910;8.630;2023-01-15T06:56:11;62.42;;;44.95;;
22871;SDS011;11603;44.910;8.630;2023-01-15T06:58:38;67.57;;;45.72;;
22871;SDS011;11603;44.910;8.630;2023-01-15T07:01:10;64.60;;;46.10;;
22871;SDS011;11603;44.910;8.630;2023-01-15T07:03:38;72.47;;;47.38;;
22871;SDS011;11603;44.910;8.630;2023-01-15T07:06:07;71.60;;;46.88;;
22871;SDS011;11603;44.910;8.630;2023-01-15T07:08:35;63.00;;;45.45;;
22871;SDS011;11603;44.910;8.630;2023-01-15T07:11:07;64.57;;;46.25;;
22871;SDS011;11603;44.910;8.630;2023-01-15T07:13:33;68.05;;;46.00;;
22871;SDS011;11603;44.910;8.630;2023-01-15T07:16:00;66.88;;;46.55;;
22871;SDS011;11603;44.910;8.630;2023-01-15T07:18:27;69.05;;;46.25;;
22871;SDS011;11603;44.910;8.630;2023-01-15T07:20:57;63.92;;;45.63;;
22871;SDS011;11603;44.910;8.630;2023-01-15T07:23:23;66.32;;;46.17;;
22871;SDS011;11603;44.910;8.630;2023-01-15T07:25:51;69.03;;;47.10;;
22871;SDS011;11603;44.910;8.630;2023-01-15T07:28:18;66.85;;;46.08;;
22871;SDS011;11603;44.910;8.630;2023-01-15T07:30:44;66.60;;;45.33;;
22871;SDS011;11603;44.910;8.630;2023-01-15T07:33:09;68.28;;;48.30;;
22871;SDS011;11603;44.910;8.630;2023-01-15T07:35:35;64.78;;;45.55;;
22871;SDS011;11603;44.910;8.630;2023-01-15T07:38:01;73.43;;;46.17;;
22871;SDS011;11603;44.910;8.630;2023-01-15T07:40:27;68.07;;;46.67;;
22871;SDS011;11603;44.910;8.630;2023-01-15T07:42:52;62.30;;;45.78;;
22871;SDS011;11603;44.910;8.630;2023-01-15T07:45:39;65.72;;;45.90;;
22871;SDS011;11603;44.910;8.630;2023-01-15T07:48:25;65.25;;;44.90;;
22871;SDS011;11603;44.910;8.630;2023-01-15T07:51:09;67.85;;;45.63;;
22871;SDS011;11603;44.910;8.630;2023-01-15T07:53:34;65.50;;;45.78;;
22871;SDS011;11603;44.910;8.630;2023-01-15T07:56:00;65.22;;;44.75;;
22871;SDS011;11603;44.910;8.630;2023-01-15T07:58:26;63.85;;;44.83;;
22871;SDS011;11603;44.910;8.630;2023-01-15T08:00:51;68.20;;;44.72;;
22871;SDS011;11603;44.910;8.630;2023-01-15T08:03:17;66.28;;;45.38;;
22871;SDS011;11603;44.910;8.630;2023-01-15T08:05:42;71.38;;;47.65;;
22871;SDS011;11603;44.910;8.630;2023-01-15T08:08:14;66.38;;;44.75;;
22871;SDS011;11603;44.910;8.630;2023-01-15T08:10:40;69.55;;;47.65;;
22871;SDS011;11603;44.910;8.630;2023-01-15T08:13:24;65.43;;;44.33;;
22871;SDS011;11603;44.910;8.630;2023-01-15T08:16:08;64.28;;;44.30;;
22871;SDS011;11603;44.910;8.630;2023-01-15T08:18:35;64.32;;;45.42;;
22871;SDS011;11603;44.910;8.630;2023-01-15T08:21:01;63.28;;;45.63;;
22871;SDS011;11603;44.910;8.630;2023-01-15T08:23:27;64.72;;;44.20;;
22871;SDS011;11603;44.910;8.630;2023-01-15T08:25:52;63.97;;;45.08;;
22871;SDS011;11603;44.910;8.630;2023-01-15T08:28:17;62.45;;;44.75;;
22871;SDS011;11603;44.910;8.630;2023-01-15T08:30:43;64.10;;;45.70;;
22871;SDS011;11603;44.910;8.630;2023-01-15T08:33:08;62.08;;;44.38;;
22871;SDS011;11603;44.910;8.630;2023-01-15T08:35:34;66.50;;;45.83;;
22871;SDS011;11603;44.910;8.630;2023-01-15T08:38:06;63.13;;;45.72;;
22871;SDS011;11603;44.910;8.630;2023-01-15T08:40:32;63.65;;;44.70;;
22871;SDS011;11603;44.910;8.630;2023-01-15T08:42:59;69.10;;;44.72;;
22871;SDS011;11603;44.910;8.630;2023-01-15T08:45:25;64.22;;;45.08;;
22871;SDS011;11603;44.910;8.630;2023-01-15T08:47:53;60.00;;;43.80;;
22871;SDS011;11603;44.910;8.630;2023-01-15T08:50:20;65.05;;;45.92;;
22871;SDS011;11603;44.910;8.630;2023-01-15T08:52:45;66.35;;;45.33;;
22871;SDS011;11603;44.910;8.630;2023-01-15T08:55:11;65.30;;;45.30;;
22871;SDS011;11603;44.910;8.630;2023-01-15T08:57:36;62.97;;;44.88;;
22871;SDS011;11603;44.910;8.630;2023-01-15T09:00:03;63.70;;;44.65;;
22871;SDS011;11603;44.910;8.630;2023-01-15T09:02:29;63.85;;;44.17;;
22871;SDS011;11603;44.910;8.630;2023-01-15T09:04:55;65.78;;;45.63;;
22871;SDS011;11603;44.910;8.630;2023-01-15T09:07:20;66.38;;;44.67;;
22871;SDS011;11603;44.910;8.630;2023-01-15T09:09:45;67.53;;;46.53;;
22871;SDS011;11603;44.910;8.630;2023-01-15T09:12:11;63.53;;;44.20;;
22871;SDS011;11603;44.910;8.630;2023-01-15T09:14:38;62.72;;;43.53;;
22871;SDS011;11603;44.910;8.630;2023-01-15T09:17:03;61.53;;;43.67;;
22871;SDS011;11603;44.910;8.630;2023-01-15T09:19:29;61.53;;;45.30;;
22871;SDS011;11603;44.910;8.630;2023-01-15T09:21:54;66.20;;;43.13;;
22871;SDS011;11603;44.910;8.630;2023-01-15T09:24:20;65.82;;;43.65;;
22871;SDS011;11603;44.910;8.630;2023-01-15T09:26:45;62.92;;;42.47;;
22871;SDS011;11603;44.910;8.630;2023-01-15T09:29:11;61.72;;;43.05;;
22871;SDS011;11603;44.910;8.630;2023-01-15T09:31:37;65.45;;;43.78;;
22871;SDS011;11603;44.910;8.630;2023-01-15T09:34:02;67.20;;;43.78;;
22871;SDS011;11603;44.910;8.630;2023-01-15T09:36:32;59.22;;;42.78;;
22871;SDS011;11603;44.910;8.630;2023-01-15T09:38:59;62.97;;;43.17;;
22871;SDS011;11603;44.910;8.630;2023-01-15T09:41:36;62.15;;;43.13;;
22871;SDS011;11603;44.910;8.630;2023-01-15T09:55:47;64.70;;;44.45;;
22871;SDS011;11603;44.910;8.630;2023-01-15T09:58:18;60.20;;;43.45;;
22871;SDS011;11603;44.910;8.630;2023-01-15T10:00:47;64.00;;;43.92;;
22871;SDS011;11603;44.910;8.630;2023-01-15T10:03:27;66.00;;;45.67;;
22871;SDS011;11603;44.910;8.630;2023-01-15T10:06:07;62.17;;;43.85;;
22871;SDS011;11603;44.910;8.630;2023-01-15T10:08:37;63.63;;;44.45;;
22871;SDS011;11603;44.910;8.630;2023-01-15T10:11:21;59.72;;;43.92;;
22871;SDS011;11603;44.910;8.630;2023-01-15T10:14:13;58.88;;;43.00;;
22871;SDS011;11603;44.910;8.630;2023-01-15T10:16:42;61.30;;;44.30;;
22871;SDS011;11603;44.910;8.630;2023-01-15T10:19:09;69.70;;;43.78;;
22871;SDS011;11603;44.910;8.630;2023-01-15T10:21:47;59.85;;;43.25;;
22871;SDS011;11603;44.910;8.630;2023-01-15T10:27:01;64.95;;;44.40;;
22871;SDS011;11603;44.910;8.630;2023-01-15T10:29:51;59.60;;;42.65;;
22871;SDS011;11603;44.910;8.630;2023-01-15T10:40:32;59.15;;;41.38;;
22871;SDS011;11603;44.910;8.630;2023-01-15T10:45:44;60.60;;;41.13;;
22871;SDS011;11603;44.910;8.630;2023-01-15T10:48:17;61.10;;;41.15;;
22871;SDS011;11603;44.910;8.630;2023-01-15T10:50:50;58.58;;;39.88;;
22871;SDS011;11603;44.910;8.630;2023-01-15T10:53:21;60.67;;;40.53;;
22871;SDS011;11603;44.910;8.630;2023-01-15T10:55:54;56.95;;;39.60;;
22871;SDS011;11603;44.910;8.630;2023-01-15T11:00:55;55.47;;;38.72;;
22871;SDS011;11603;44.910;8.630;2023-01-15T11:03:31;51.13;;;36.60;;
22871;SDS011;11603;44.910;8.630;2023-01-15T11:06:02;59.45;;;37.65;;
22871;SDS011;11603;44.910;8.630;2023-01-15T11:08:27;76.90;;;42.42;;
22871;SDS011;11603;44.910;8.630;2023-01-15T11:10:55;56.05;;;38.75;;
22871;SDS011;11603;44.910;8.630;2023-01-15T11:13:25;59.53;;;38.47;;
22871;SDS011;11603;44.910;8.630;2023-01-15T11:16:13;54.13;;;38.17;;
22871;SDS011;11603;44.910;8.630;2023-01-15T11:19:00;53.55;;;38.30;;
22871;SDS011;11603;44.910;8.630;2023-01-15T11:21:46;52.45;;;39.33;;
22871;SDS011;11603;44.910;8.630;2023-01-15T11:24:14;54.30;;;39.33;;
22871;SDS011;11603;44.910;8.630;2023-01-15T11:26:41;56.95;;;41.70;;
22871;SDS011;11603;44.910;8.630;2023-01-15T11:29:18;55.38;;;39.47;;
22871;SDS011;11603;44.910;8.630;2023-01-15T11:31:56;56.53;;;39.30;;
22871;SDS011;11603;44.910;8.630;2023-01-15T11:34:22;60.78;;;41.75;;
22871;SDS011;11603;44.910;8.630;2023-01-15T11:36:48;57.60;;;42.70;;
22871;SDS011;11603;44.910;8.630;2023-01-15T11:39:26;59.72;;;41.83;;
22871;SDS011;11603;44.910;8.630;2023-01-15T11:42:02;56.03;;;41.50;;
22871;SDS011;11603;44.910;8.630;2023-01-15T11:44:55;57.50;;;40.70;;
22871;SDS011;11603;44.910;8.630;2023-01-15T11:47:53;57.65;;;40.17;;
22871;SDS011;11603;44.910;8.630;2023-01-15T11:51:23;54.83;;;40.42;;
22871;SDS011;11603;44.910;8.630;2023-01-15T11:53:27;56.22;;;40.83;;
22871;SDS011;11603;44.910;8.630;2023-01-15T11:55:58;55.70;;;40.30;;
22871;SDS011;11603;44.910;8.630;2023-01-15T11:58:25;59.78;;;41.20;;
22871;SDS011;11603;44.910;8.630;2023-01-15T12:00:53;54.85;;;41.42;;
22871;SDS011;11603;44.910;8.630;2023-01-15T12:03:24;57.72;;;41.95;;
22871;SDS011;11603;44.910;8.630;2023-01-15T12:06:04;60.78;;;42.42;;
22871;SDS011;11603;44.910;8.630;2023-01-15T12:08:47;57.08;;;42.03;;
22871;SDS011;11603;44.910;8.630;2023-01-15T12:11:33;57.00;;;42.20;;
22871;SDS011;11603;44.910;8.630;2023-01-15T12:17:08;59.13;;;42.63;;
22871;SDS011;11603;44.910;8.630;2023-01-15T12:25:28;56.78;;;42.25;;
22871;SDS011;11603;44.910;8.630;2023-01-15T12:28:20;55.78;;;41.63;;
22871;SDS011;11603;44.910;8.630;2023-01-15T12:31:17;55.97;;;41.53;;
22871;SDS011;11603;44.910;8.630;2023-01-15T12:33:59;56.72;;;41.17;;
22871;SDS011;11603;44.910;8.630;2023-01-15T12:36:40;56.63;;;41.63;;
22871;SDS011;11603;44.910;8.630;2023-01-15T12:39:15;57.88;;;41.15;;
22871;SDS011;11603;44.910;8.630;2023-01-15T12:41:46;55.92;;;41.13;;
22871;SDS011;11603;44.910;8.630;2023-01-15T12:44:40;56.92;;;41.00;;
22871;SDS011;11603;44.910;8.630;2023-01-15T12:53:08;52.72;;;40.47;;
22871;SDS011;11603;44.910;8.630;2023-01-15T12:55:53;58.63;;;42.28;;
22871;SDS011;11603;44.910;8.630;2023-01-15T12:58:36;57.55;;;42.95;;
22871;SDS011;11603;44.910;8.630;2023-01-15T13:01:03;55.72;;;43.53;;
22871;SDS011;11603;44.910;8.630;2023-01-15T13:03:58;61.33;;;43.33;;
22871;SDS011;11603;44.910;8.630;2023-01-15T13:06:27;58.80;;;40.60;;
22871;SDS011;11603;44.910;8.630;2023-01-15T13:11:27;59.85;;;42.55;;
22871;SDS011;11603;44.910;8.630;2023-01-15T13:13:53;58.30;;;42.83;;
22871;SDS011;11603;44.910;8.630;2023-01-15T13:16:26;61.22;;;44.38;;
22871;SDS011;11603;44.910;8.630;2023-01-15T13:21:25;56.28;;;42.50;;
22871;SDS011;11603;44.910;8.630;2023-01-15T13:31:56;58.13;;;43.55;;
22871;SDS011;11603;44.910;8.630;2023-01-15T13:34:55;63.67;;;44.92;;
22871;SDS011;11603;44.910;8.630;2023-01-15T13:39:56;61.00;;;45.28;;
22871;SDS011;11603;44.910;8.630;2023-01-15T13:42:27;66.10;;;45.17;;
22871;SDS011;11603;44.910;8.630;2023-01-15T13:44:56;59.05;;;42.58;;
22871;SDS011;11603;44.910;8.630;2023-01-15T13:47:26;61.28;;;45.55;;
22871;SDS011;11603;44.910;8.630;2023-01-15T13:49:55;65.45;;;44.78;;
22871;SDS011;11603;44.910;8.630;2023-01-15T13:52:32;58.20;;;46.05;;
22871;SDS011;11603;44.910;8.630;2023-01-15T13:55:06;61.15;;;44.05;;
22871;SDS011;11603;44.910;8.630;2023-01-15T13:57:37;62.72;;;45.33;;
22871;SDS011;11603;44.910;8.630;2023-01-15T14:00:24;66.05;;;46.72;;
22871;SDS011;11603;44.910;8.630;2023-01-15T14:02:59;63.92;;;45.90;;
22871;SDS011;11603;44.910;8.630;2023-01-15T14:05:27;60.30;;;46.03;;
22871;SDS011;11603;44.910;8.630;2023-01-15T14:07:55;64.60;;;46.80;;
22871;SDS011;11603;44.910;8.630;2023-01-15T14:18:51;65.50;;;48.50;;
22871;SDS011;11603;44.910;8.630;2023-01-15T14:21:30;68.10;;;50.33;;
22871;SDS011;11603;44.910;8.630;2023-01-15T14:24:24;70.10;;;51.15;;
22871;SDS011;11603;44.910;8.630;2023-01-15T14:26:59;70.28;;;52.35;;
22871;SDS011;11603;44.910;8.630;2023-01-15T14:34:52;72.28;;;53.35;;
22871;SDS011;11603;44.910;8.630;2023-01-15T14:37:22;69.38;;;51.08;;
22871;SDS011;11603;44.910;8.630;2023-01-15T14:39:50;68.85;;;50.33;;
22871;SDS011;11603;44.910;8.630;2023-01-15T14:45:07;68.90;;;50.50;;
22871;SDS011;11603;44.910;8.630;2023-01-15T14:47:49;67.63;;;50.58;;
22871;SDS011;11603;44.910;8.630;2023-01-15T14:52:51;70.15;;;50.05;;
22871;SDS011;11603;44.910;8.630;2023-01-15T14:55:18;65.65;;;49.25;;
22871;SDS011;11603;44.910;8.630;2023-01-15T14:57:55;66.90;;;50.97;;
22871;SDS011;11603;44.910;8.630;2023-01-15T15:00:25;69.20;;;50.17;;
22871;SDS011;11603;44.910;8.630;2023-01-15T15:02:58;68.38;;;49.63;;
22871;SDS011;11603;44.910;8.630;2023-01-15T15:05:26;69.75;;;48.65;;
22871;SDS011;11603;44.910;8.630;2023-01-15T15:07:55;64.40;;;47.47;;
22871;SDS011;11603;44.910;8.630;2023-01-15T15:18:26;68.15;;;50.15;;
22871;SDS011;11603;44.910;8.630;2023-01-15T15:21:07;66.55;;;50.45;;
22871;SDS011;11603;44.910;8.630;2023-01-15T15:23:49;73.40;;;54.20;;
22871;SDS011;11603;44.910;8.630;2023-01-15T15:26:28;74.18;;;55.95;;
22871;SDS011;11603;44.910;8.630;2023-01-15T15:28:59;74.20;;;56.42;;
22871;SDS011;11603;44.910;8.630;2023-01-15T15:31:26;75.88;;;56.13;;
22871;SDS011;11603;44.910;8.630;2023-01-15T15:33:53;74.53;;;57.47;;
22871;SDS011;11603;44.910;8.630;2023-01-15T15:36:20;74.47;;;57.17;;
22871;SDS011;11603;44.910;8.630;2023-01-15T15:38:52;79.05;;;58.60;;
22871;SDS011;11603;44.910;8.630;2023-01-15T15:41:23;75.93;;;56.95;;
22871;SDS011;11603;44.910;8.630;2023-01-15T15:44:12;82.47;;;58.20;;
22871;SDS011;11603;44.910;8.630;2023-01-15T15:47:17;75.32;;;57.15;;
22871;SDS011;11603;44.910;8.630;2023-01-15T15:50:05;82.60;;;58.88;;
22871;SDS011;11603;44.910;8.630;2023-01-15T15:52:42;80.40;;;57.55;;
22871;SDS011;11603;44.910;8.630;2023-01-15T15:55:14;79.15;;;59.35;;
22871;SDS011;11603;44.910;8.630;2023-01-15T15:57:41;79.93;;;58.53;;
22871;SDS011;11603;44.910;8.630;2023-01-15T16:00:14;76.25;;;58.75;;
22871;SDS011;11603;44.910;8.630;2023-01-15T16:02:43;80.70;;;60.55;;
22871;SDS011;11603;44.910;8.630;2023-01-15T16:05:25;75.93;;;57.42;;
22871;SDS011;11603;44.910;8.630;2023-01-15T16:08:05;74.38;;;56.97;;
22871;SDS011;11603;44.910;8.630;2023-01-15T16:10:32;79.43;;;58.63;;
22871;SDS011;11603;44.910;8.630;2023-01-15T16:13:02;75.15;;;56.38;;
22871;SDS011;11603;44.910;8.630;2023-01-15T16:15:32;78.78;;;56.95;;
22871;SDS011;11603;44.910;8.630;2023-01-15T16:18:00;74.40;;;57.33;;
22871;SDS011;11603;44.910;8.630;2023-01-15T16:20:28;77.28;;;57.05;;
22871;SDS011;11603;44.910;8.630;2023-01-15T16:22:54;81.63;;;60.28;;
22871;SDS011;11603;44.910;8.630;2023-01-15T16:25:33;80.47;;;59.75;;
22871;SDS011;11603;44.910;8.630;2023-01-15T16:28:02;86.43;;;62.15;;
22871;SDS011;11603;44.910;8.630;2023-01-15T16:30:28;81.75;;;60.50;;
22871;SDS011;11603;44.910;8.630;2023-01-15T16:32:59;86.13;;;63.35;;
22871;SDS011;11603;44.910;8.630;2023-01-15T16:35:27;85.05;;;61.47;;
22871;SDS011;11603;44.910;8.630;2023-01-15T16:37:55;83.50;;;61.95;;
22871;SDS011;11603;44.910;8.630;2023-01-15T16:40:31;84.65;;;63.50;;